createdAt,value
2018-04-16T00:00:14.368Z,15.39
2018-04-16T00:02:42.635Z,15.37
2018-04-16T00:05:11.728Z,15.34
2018-04-16T00:07:39.969Z,15.30
2018-04-16T00:10:09.651Z,15.29
2018-04-16T00:12:38.553Z,15.30
2018-04-16T00:15:08.718Z,15.26
2018-04-16T00:17:36.994Z,15.24
2018-04-16T00:20:05.361Z,15.21
2018-04-16T00:22:34.752Z,15.21
2018-04-16T00:25:03.803Z,15.22
2018-04-16T00:27:33.637Z,15.23
2018-04-16T00:30:03.421Z,15.20
2018-04-16T00:35:42.706Z,15.19
2018-04-16T00:38:20.616Z,15.20
2018-04-16T00:40:57.072Z,15.20
2018-04-16T00:43:31.224Z,15.19
2018-04-16T00:46:13.138Z,15.16
2018-04-16T00:48:47.221Z,15.13
2018-04-16T00:51:24.350Z,15.12
2018-04-16T00:54:17.152Z,15.13
2018-04-16T00:56:50.878Z,15.13
2018-04-16T00:59:26.316Z,15.14
2018-04-16T01:02:00.465Z,15.14
2018-04-16T01:04:34.424Z,15.14
2018-04-16T01:07:12.397Z,15.14
2018-04-16T01:09:47.039Z,15.12
2018-04-16T01:12:21.119Z,15.11
2018-04-16T01:14:55.247Z,15.07
2018-04-16T01:17:29.418Z,15.09
2018-04-16T01:20:06.997Z,15.08
2018-04-16T01:22:41.237Z,15.05
2018-04-16T01:25:15.212Z,15.00
2018-04-16T01:27:52.627Z,14.97
2018-04-16T01:30:28.889Z,14.97
2018-04-16T01:33:03.695Z,14.98
2018-04-16T01:35:37.788Z,14.98
2018-04-16T01:38:11.662Z,14.96
2018-04-16T01:40:45.510Z,14.93
2018-04-16T01:43:22.833Z,14.88
2018-04-16T01:45:56.764Z,14.85
2018-04-16T01:48:32.674Z,14.85
2018-04-16T01:51:06.586Z,14.86
2018-04-16T01:53:40.869Z,14.85
2018-04-16T01:56:17.072Z,14.84
2018-04-16T01:58:51.210Z,14.84
2018-04-16T02:01:26.214Z,14.83
2018-04-16T02:04:01.765Z,14.83
2018-04-16T02:06:36.759Z,14.83
2018-04-16T02:09:11.991Z,14.83
2018-04-16T02:11:46.795Z,14.82
2018-04-16T02:14:22.657Z,14.82
2018-04-16T02:16:56.986Z,14.81
2018-04-16T02:19:30.936Z,14.80
2018-04-16T02:22:05.533Z,14.79
2018-04-16T02:27:21.825Z,14.75
2018-04-16T02:29:58.951Z,14.75
2018-04-16T02:32:32.847Z,14.76
2018-04-16T02:35:16.147Z,14.74
2018-04-16T02:37:51.446Z,14.73
2018-04-16T02:40:29.320Z,14.73
2018-04-16T02:43:03.526Z,14.74
2018-04-16T02:45:39.061Z,14.75
2018-04-16T02:48:12.982Z,14.76
2018-04-16T02:50:46.996Z,14.76
2018-04-16T02:53:20.899Z,14.77
2018-04-16T02:55:54.508Z,14.75
2018-04-16T02:58:29.594Z,14.71
2018-04-16T03:01:03.542Z,14.68
2018-04-16T03:03:38.100Z,14.65
2018-04-16T03:06:13.735Z,14.63
2018-04-16T03:08:47.713Z,14.63
2018-04-16T03:11:21.941Z,14.68
2018-04-16T03:13:59.318Z,14.68
2018-04-16T03:16:33.518Z,14.68
2018-04-16T03:19:07.472Z,14.68
2018-04-16T03:21:42.938Z,14.68
2018-04-16T03:24:16.744Z,14.69
2018-04-16T03:26:52.473Z,14.71
2018-04-16T03:29:26.570Z,14.71
2018-04-16T03:32:00.696Z,14.71
2018-04-16T03:34:35.139Z,14.71
2018-04-16T03:37:09.267Z,14.71
2018-04-16T03:39:44.101Z,14.71
2018-04-16T03:42:21.581Z,14.67
2018-04-16T03:44:56.428Z,14.60
2018-04-16T03:47:30.304Z,14.55
2018-04-16T03:50:06.390Z,14.51
2018-04-16T03:55:43.785Z,14.43
2018-04-16T03:58:15.220Z,14.41
2018-04-16T04:00:43.728Z,14.41
2018-04-16T04:03:13.212Z,14.41
2018-04-16T04:05:43.040Z,14.44
2018-04-16T04:08:11.932Z,14.46
2018-04-16T04:10:40.352Z,14.49
2018-04-16T04:13:08.985Z,14.51
2018-04-16T04:15:37.762Z,14.52
2018-04-16T04:18:09.237Z,14.53
2018-04-16T04:20:37.530Z,14.55
2018-04-16T04:23:23.973Z,14.55
2018-04-16T04:26:10.948Z,14.57
2018-04-16T04:28:58.589Z,14.55
2018-04-16T04:31:27.014Z,14.53
2018-04-16T04:33:55.692Z,14.55
2018-04-16T04:36:24.482Z,14.55
2018-04-16T04:38:55.686Z,14.56
2018-04-16T04:41:24.387Z,14.57
2018-04-16T04:43:54.884Z,14.57
2018-04-16T04:46:23.449Z,14.57
2018-04-16T04:48:56.350Z,14.58
2018-04-16T04:51:24.615Z,14.55
2018-04-16T04:53:53.467Z,14.53
2018-04-16T04:56:21.892Z,14.51
2018-04-16T04:58:50.496Z,14.52
2018-04-16T05:01:19.420Z,14.53
2018-04-16T05:03:49.416Z,14.53
2018-04-16T05:06:17.999Z,14.54
2018-04-16T05:08:46.900Z,14.56
2018-04-16T05:11:16.054Z,14.57
2018-04-16T05:13:45.015Z,14.56
2018-04-16T05:16:17.632Z,14.58
2018-04-16T05:18:46.265Z,14.59
2018-04-16T05:21:16.177Z,14.60
2018-04-16T05:23:45.263Z,14.61
2018-04-16T05:26:16.370Z,14.63
2018-04-16T05:28:46.332Z,14.65
2018-04-16T05:31:16.301Z,14.67
2018-04-16T05:33:46.541Z,14.67
2018-04-16T05:36:15.134Z,14.66
2018-04-16T05:38:48.564Z,14.67
2018-04-16T05:41:17.192Z,14.67
2018-04-16T05:43:47.826Z,14.69
2018-04-16T05:46:17.024Z,14.68
2018-04-16T05:48:46.616Z,14.70
2018-04-16T05:51:15.264Z,14.71
2018-04-16T05:53:45.537Z,14.72
2018-04-16T05:56:13.898Z,14.75
2018-04-16T05:58:42.465Z,14.78
2018-04-16T06:01:11.050Z,14.80
2018-04-16T06:03:40.312Z,14.81
2018-04-16T06:06:09.004Z,14.82
2018-04-16T06:08:39.938Z,14.82
2018-04-16T06:11:09.297Z,14.82
2018-04-16T06:13:39.798Z,14.84
2018-04-16T06:16:09.202Z,14.89
2018-04-16T06:18:39.727Z,14.90
2018-04-16T06:21:09.088Z,14.93
2018-04-16T06:23:48.369Z,14.96
2018-04-16T06:26:17.015Z,14.99
2018-04-16T06:28:46.585Z,15.00
2018-04-16T06:31:15.628Z,15.02
2018-04-16T06:33:44.247Z,15.05
2018-04-16T06:36:13.094Z,15.07
2018-04-16T06:38:42.219Z,15.10
2018-04-16T06:41:10.513Z,15.10
2018-04-16T06:43:39.549Z,15.14
2018-04-16T06:46:07.941Z,15.15
2018-04-16T06:48:38.501Z,15.15
2018-04-16T06:51:07.975Z,15.17
2018-04-16T06:53:39.346Z,15.23
2018-04-16T06:56:08.402Z,15.27
2018-04-16T06:58:39.515Z,15.33
2018-04-16T07:01:18.166Z,15.38
2018-04-16T07:03:48.291Z,15.45
2018-04-16T07:06:16.848Z,15.54
2018-04-16T07:08:46.250Z,15.61
2018-04-16T07:11:15.922Z,15.66
2018-04-16T07:13:45.525Z,15.71
2018-04-16T07:16:13.993Z,15.75
2018-04-16T07:18:42.786Z,15.79
2018-04-16T07:21:12.481Z,15.82
2018-04-16T07:23:42.049Z,15.85
2018-04-16T07:26:10.613Z,15.92
2018-04-16T07:28:49.534Z,15.99
2018-04-16T07:31:21.506Z,16.05
2018-04-16T07:33:50.462Z,16.11
2018-04-16T07:36:21.775Z,16.16
2018-04-16T07:41:38.416Z,16.29
2018-04-16T07:44:06.835Z,16.33
2018-04-16T07:46:35.800Z,16.37
2018-04-16T07:49:06.217Z,16.42
2018-04-16T07:51:34.992Z,16.43
2018-04-16T07:54:05.197Z,16.44
2018-04-16T07:56:33.767Z,16.46
2018-04-16T07:59:02.588Z,16.54
2018-04-16T08:01:31.212Z,16.61
2018-04-16T08:04:02.195Z,16.65
2018-04-16T08:06:30.803Z,16.69
2018-04-16T08:09:01.192Z,16.75
2018-04-16T08:11:30.263Z,16.81
2018-04-16T08:13:59.249Z,16.86
2018-04-16T08:16:28.344Z,16.92
2018-04-16T08:18:58.443Z,16.98
2018-04-16T08:21:27.338Z,17.02
2018-04-16T08:23:57.362Z,17.08
2018-04-16T08:26:27.239Z,17.13
2018-04-16T08:29:00.095Z,17.19
2018-04-16T08:31:29.115Z,17.25
2018-04-16T08:33:59.068Z,17.32
2018-04-16T08:36:28.052Z,17.36
2018-04-16T08:38:58.233Z,17.42
2018-04-16T08:41:26.698Z,17.50
2018-04-16T08:43:55.487Z,17.58
2018-04-16T08:46:24.627Z,17.63
2018-04-16T08:48:53.444Z,17.69
2018-04-16T08:51:21.952Z,17.74
2018-04-16T08:53:51.464Z,17.77
2018-04-16T08:56:20.048Z,17.82
2018-04-16T08:58:49.114Z,17.84
2018-04-16T09:01:17.688Z,17.90
2018-04-16T09:03:48.578Z,17.95
2018-04-16T09:06:18.076Z,18.04
2018-04-16T09:09:00.365Z,18.07
2018-04-16T09:11:31.842Z,18.13
2018-04-16T09:14:00.906Z,18.20
2018-04-16T09:16:33.349Z,18.29
2018-04-16T09:19:01.923Z,18.42
2018-04-16T09:21:34.177Z,18.50
2018-04-16T09:24:03.072Z,18.65
2018-04-16T09:26:35.808Z,18.81
2018-04-16T09:29:04.190Z,18.94
2018-04-16T09:31:46.558Z,18.99
2018-04-16T09:34:16.262Z,19.03
2018-04-16T09:36:44.539Z,19.12
2018-04-16T09:39:17.360Z,19.23
2018-04-16T09:41:46.537Z,19.25
2018-04-16T09:44:16.708Z,19.26
2018-04-16T09:47:02.715Z,19.33
2018-04-16T09:49:31.375Z,19.35
2018-04-16T09:51:59.717Z,19.44
2018-04-16T09:54:32.334Z,19.52
2018-04-16T09:57:01.239Z,19.63
2018-04-16T09:59:30.713Z,19.69
2018-04-16T10:01:59.483Z,19.70
2018-04-16T10:04:31.626Z,19.75
2018-04-16T10:07:00.413Z,19.74
2018-04-16T10:09:31.710Z,19.74
2018-04-16T10:12:00.216Z,19.75
2018-04-16T10:14:32.916Z,19.79
2018-04-16T10:17:01.223Z,19.86
2018-04-16T10:19:31.522Z,19.95
2018-04-16T10:21:59.882Z,20.02
2018-04-16T10:24:30.410Z,20.00
2018-04-16T10:26:58.758Z,20.00
2018-04-16T10:29:30.483Z,20.03
2018-04-16T10:31:59.246Z,20.09
2018-04-16T10:34:29.496Z,20.19
2018-04-16T10:37:11.206Z,20.28
2018-04-16T10:39:40.061Z,20.44
2018-04-16T10:42:09.323Z,20.63
2018-04-16T10:44:39.920Z,20.82
2018-04-16T10:47:08.252Z,21.02
2018-04-16T10:49:38.627Z,21.16
2018-04-16T10:52:08.007Z,21.33
2018-04-16T10:54:37.150Z,21.48
2018-04-16T10:57:05.741Z,21.43
2018-04-16T10:59:34.718Z,21.43
2018-04-16T11:02:03.111Z,21.53
2018-04-16T11:04:39.977Z,21.52
2018-04-16T11:07:08.748Z,21.49
2018-04-16T11:09:38.671Z,21.49
2018-04-16T11:12:17.984Z,21.44
2018-04-16T11:14:46.633Z,21.32
2018-04-16T11:17:24.872Z,21.20
2018-04-16T11:19:59.637Z,21.18
2018-04-16T11:22:42.947Z,21.20
2018-04-16T11:25:13.461Z,21.28
2018-04-16T11:27:42.031Z,21.32
2018-04-16T11:30:12.743Z,21.35
2018-04-16T11:32:42.766Z,21.40
2018-04-16T11:35:12.130Z,21.42
2018-04-16T11:37:40.733Z,21.45
2018-04-16T11:40:18.507Z,21.46
2018-04-16T11:42:46.849Z,21.44
2018-04-16T11:45:17.547Z,21.41
2018-04-16T11:47:46.273Z,21.32
2018-04-16T11:50:14.589Z,21.33
2018-04-16T11:52:45.102Z,21.30
2018-04-16T11:55:13.763Z,21.31
2018-04-16T11:57:43.361Z,21.31
2018-04-16T12:00:12.400Z,21.26
2018-04-16T12:02:41.869Z,21.27
2018-04-16T12:07:57.452Z,21.38
2018-04-16T12:10:27.124Z,21.42
2018-04-16T12:12:55.645Z,21.43
2018-04-16T12:15:33.579Z,21.44
2018-04-16T12:18:02.611Z,21.48
2018-04-16T12:20:48.987Z,21.47
2018-04-16T12:23:23.301Z,21.53
2018-04-16T12:25:53.279Z,21.48
2018-04-16T12:28:21.637Z,21.42
2018-04-16T12:31:01.156Z,21.48
2018-04-16T12:33:30.163Z,21.47
2018-04-16T12:36:00.165Z,21.46
2018-04-16T12:38:28.730Z,21.53
2018-04-16T12:40:59.216Z,21.53
2018-04-16T12:43:27.728Z,21.55
2018-04-16T12:45:56.969Z,21.64
2018-04-16T12:48:31.635Z,21.72
2018-04-16T12:51:01.695Z,21.78
2018-04-16T12:53:30.224Z,21.82
2018-04-16T12:56:00.115Z,21.90
2018-04-16T12:58:36.630Z,22.09
2018-04-16T13:01:13.141Z,22.33
2018-04-16T13:03:45.635Z,22.48
2018-04-16T13:06:14.107Z,22.60
2018-04-16T13:08:47.095Z,22.83
2018-04-16T13:11:17.931Z,23.07
2018-04-16T13:13:56.907Z,23.22
2018-04-16T13:16:25.557Z,23.41
2018-04-16T13:18:53.916Z,23.61
2018-04-16T13:21:28.289Z,23.87
2018-04-16T13:23:56.714Z,23.89
2018-04-16T13:26:29.240Z,23.79
2018-04-16T13:28:57.642Z,23.79
2018-04-16T13:31:26.149Z,23.79
2018-04-16T13:33:56.520Z,23.76
2018-04-16T13:36:25.068Z,23.72
2018-04-16T13:41:40.112Z,23.56
2018-04-16T13:44:23.292Z,23.29
2018-04-16T22:36:04.963Z,12.09
2018-04-16T22:38:34.704Z,12.08
2018-04-16T22:41:07.973Z,12.07
2018-04-16T22:43:36.980Z,12.05
2018-04-16T22:46:18.047Z,12.05
2018-04-16T22:48:48.149Z,12.05
2018-04-16T22:51:16.477Z,12.06
2018-04-16T22:53:46.809Z,12.08
2018-04-16T22:56:15.093Z,12.09
2018-04-16T22:58:45.397Z,12.10
2018-04-16T23:01:13.725Z,12.11
2018-04-16T23:03:43.337Z,12.11
2018-04-16T23:06:11.779Z,12.10
2018-04-16T23:08:40.955Z,12.09
2018-04-16T23:11:09.236Z,12.06
2018-04-16T23:13:39.954Z,12.02
2018-04-16T23:16:08.256Z,11.99
2018-04-16T23:18:38.423Z,11.93
2018-04-16T23:21:06.796Z,11.88
2018-04-16T23:23:35.978Z,11.85
2018-04-16T23:26:05.023Z,11.80
2018-04-16T23:28:33.245Z,11.75
2018-04-16T23:31:04.177Z,11.69
2018-04-16T23:33:32.727Z,11.65
2018-04-16T23:36:03.761Z,11.63
2018-04-16T23:38:32.797Z,11.60
2018-04-16T23:41:01.177Z,11.61
2018-04-16T23:43:29.648Z,11.56
2018-04-16T23:45:58.349Z,11.51
2018-04-16T23:48:27.615Z,11.47
2018-04-16T23:50:57.841Z,11.44
2018-04-16T23:53:27.224Z,11.42
2018-04-16T23:55:57.613Z,11.39
2018-04-16T23:58:26.317Z,11.33
